createdAt,value
2019-01-11T00:02:29.261Z,1.20
2019-01-11T00:05:16.329Z,1.30
2019-01-11T00:08:03.843Z,1.20
2019-01-11T00:10:51.062Z,1.20
2019-01-11T00:13:37.497Z,1.10
2019-01-11T00:16:17.742Z,1.10
2019-01-11T00:18:58.487Z,1.10
2019-01-11T00:21:38.456Z,1.10
2019-01-11T00:24:18.983Z,1.10
2019-01-11T00:26:59.056Z,1.00
2019-01-11T00:29:39.183Z,1.00
2019-01-11T00:32:19.237Z,1.20
2019-01-11T00:34:58.819Z,1.00
2019-01-11T00:37:39.512Z,1.10
2019-01-11T00:40:38.908Z,1.20
2019-01-11T00:43:18.490Z,1.10
2019-01-11T00:45:58.674Z,1.00
2019-01-11T00:48:38.958Z,0.90
2019-01-11T00:51:19.492Z,0.90
2019-01-11T00:53:59.803Z,0.90
2019-01-11T00:56:40.074Z,1.00
2019-01-11T00:59:19.727Z,1.00
2019-01-11T01:02:00.152Z,1.10
2019-01-11T01:04:40.418Z,1.10
2019-01-11T01:07:20.555Z,1.10
2019-01-11T01:10:00.350Z,1.10
2019-01-11T01:15:49.766Z,1.10
2019-01-11T01:18:49.245Z,1.10
2019-01-11T01:21:29.038Z,1.00
2019-01-11T01:24:28.387Z,0.90
2019-01-11T01:27:07.865Z,0.90
2019-01-11T01:29:48.306Z,0.80
2019-01-11T01:32:30.001Z,0.90
2019-01-11T01:35:10.015Z,0.90
2019-01-11T01:37:50.273Z,0.80
2019-01-11T01:40:29.891Z,0.60
2019-01-11T01:43:10.506Z,0.50
2019-01-11T01:45:50.546Z,0.60
2019-01-11T01:48:30.587Z,0.60
2019-01-11T01:51:10.581Z,0.50
2019-01-11T01:53:51.091Z,0.50
2019-01-11T01:56:31.365Z,0.50
2019-01-11T01:59:11.428Z,0.50
2019-01-11T02:01:51.762Z,0.50
2019-01-11T02:07:39.843Z,0.50
2019-01-11T02:10:19.555Z,0.40
2019-01-11T02:12:59.126Z,0.50
2019-01-11T02:15:39.563Z,0.40
2019-01-11T02:18:19.629Z,0.40
2019-01-11T02:20:59.458Z,0.40
2019-01-11T02:23:39.851Z,0.50
2019-01-11T02:26:19.658Z,0.40
2019-01-11T02:28:59.810Z,0.40
2019-01-11T02:31:40.095Z,0.50
2019-01-11T02:34:20.102Z,0.40
2019-01-11T02:37:00.486Z,0.30
2019-01-11T02:39:40.135Z,0.30
2019-01-11T02:42:20.088Z,0.30
2019-01-11T02:44:59.920Z,0.20
2019-01-11T02:47:39.602Z,0.30
2019-01-11T02:53:28.554Z,0.30
2019-01-11T02:56:08.275Z,0.30
2019-01-11T02:58:48.934Z,0.30
2019-01-11T03:01:28.777Z,0.30
2019-01-11T03:04:08.832Z,0.20
2019-01-11T03:07:08.461Z,0.20
2019-01-11T03:09:48.759Z,0.30
2019-01-11T03:12:28.851Z,0.40
2019-01-11T03:15:08.588Z,0.20
2019-01-11T03:21:08.254Z,0.40
2019-01-11T03:23:48.300Z,0.40
2019-01-11T03:26:28.534Z,0.40
2019-01-11T03:29:08.516Z,0.40
2019-01-11T03:31:48.368Z,0.40
2019-01-11T03:34:28.164Z,0.40
2019-01-11T03:37:08.482Z,0.40
2019-01-11T03:39:48.526Z,0.60
2019-01-11T03:42:28.667Z,0.40
2019-01-11T03:45:09.081Z,0.40
2019-01-11T03:47:48.837Z,0.40
2019-01-11T03:50:16.785Z,0.30
2019-01-11T03:53:03.733Z,0.20
2019-01-11T03:55:50.775Z,0.30
2019-01-11T03:58:38.074Z,0.40
2019-01-11T04:01:24.877Z,0.30
2019-01-11T04:04:11.438Z,0.20
2019-01-11T04:06:58.185Z,0.30
2019-01-11T04:09:44.732Z,0.40
2019-01-11T04:12:31.489Z,0.40
2019-01-11T04:15:18.717Z,0.50
2019-01-11T04:18:18.762Z,0.50
2019-01-11T04:20:57.970Z,0.40
2019-01-11T04:23:37.491Z,0.40
2019-01-11T04:26:17.173Z,0.40
2019-01-11T04:28:57.817Z,0.30
2019-01-11T04:31:37.993Z,0.30
2019-01-11T04:34:18.060Z,0.20
2019-01-11T04:36:57.936Z,0.20
2019-01-11T04:39:37.987Z,0.20
2019-01-11T04:42:18.065Z,0.20
2019-01-11T04:44:58.088Z,0.20
2019-01-11T04:47:38.141Z,0.20
2019-01-11T04:50:18.439Z,0.50
2019-01-11T04:52:58.176Z,0.30
2019-01-11T04:55:38.650Z,0.30
2019-01-11T04:58:18.516Z,0.20
2019-01-11T05:00:58.853Z,0.20
2019-01-11T05:03:38.843Z,0.30
2019-01-11T05:06:19.081Z,0.40
2019-01-11T05:08:58.741Z,0.30
2019-01-11T05:11:38.802Z,0.30
2019-01-11T05:14:19.450Z,0.30
2019-01-11T05:20:18.471Z,0.20
2019-01-11T05:22:58.764Z,0.20
2019-01-11T05:25:39.283Z,0.30
2019-01-11T05:31:38.566Z,0.30
2019-01-11T05:37:23.840Z,0.20
2019-01-11T05:40:03.878Z,0.10
2019-01-11T05:42:44.013Z,0.20
2019-01-11T05:45:23.983Z,0.20
2019-01-11T05:48:04.083Z,0.20
2019-01-11T05:50:44.054Z,0.30
2019-01-11T05:53:24.546Z,0.20
2019-01-11T05:56:08.193Z,0.20
2019-01-11T05:58:52.109Z,0.30
2019-01-11T06:01:32.622Z,0.40
2019-01-11T06:04:32.144Z,0.30
2019-01-11T06:07:31.233Z,0.30
2019-01-11T06:10:10.920Z,0.30
2019-01-11T06:12:51.208Z,0.30
2019-01-11T06:15:31.394Z,0.30
2019-01-11T06:24:39.173Z,0.30
2019-01-11T06:27:19.414Z,0.20
2019-01-11T06:29:59.326Z,0.30
2019-01-11T06:32:39.513Z,0.30
2019-01-11T06:35:19.369Z,0.30
2019-01-11T06:37:59.288Z,0.40
2019-01-11T06:40:39.622Z,0.40
2019-01-11T06:43:19.492Z,0.40
2019-01-11T06:45:59.945Z,0.40
2019-01-11T06:48:43.526Z,0.30
2019-01-11T06:51:23.811Z,0.40
2019-01-11T06:54:03.713Z,0.40
2019-01-11T06:56:43.937Z,0.40
2019-01-11T06:59:24.133Z,0.30
2019-01-11T07:02:04.198Z,0.40
2019-01-11T07:04:43.978Z,0.30
2019-01-11T07:07:24.145Z,0.20
2019-01-11T07:10:04.437Z,0.20
2019-01-11T07:12:44.783Z,0.20
2019-01-11T07:15:24.773Z,0.10
2019-01-11T07:18:04.951Z,0.30
2019-01-11T07:20:45.076Z,0.10
2019-01-11T07:23:24.833Z,0.30
2019-01-11T07:26:04.042Z,0.20
2019-01-11T07:28:44.317Z,0.30
2019-01-11T07:31:27.374Z,0.20
2019-01-11T07:34:07.388Z,0.20
2019-01-11T07:36:49.639Z,0.10
2019-01-11T07:39:30.091Z,0.20
2019-01-11T07:42:10.416Z,0.10
2019-01-11T07:47:58.787Z,0.20
2019-01-11T07:50:39.003Z,0.20
2019-01-11T07:53:18.976Z,0.20
2019-01-11T07:55:59.457Z,0.10
2019-01-11T07:58:39.417Z,0.10
2019-01-11T08:01:19.369Z,0.20
2019-01-11T08:03:59.625Z,0.10
2019-01-11T08:06:39.574Z,0.10
2019-01-11T08:09:19.688Z,0.20
2019-01-11T08:11:59.564Z,0.10
2019-01-11T08:14:39.822Z,0.00
2019-01-11T08:17:19.630Z,0.10
2019-01-11T08:19:59.685Z,0.10
2019-01-11T08:22:40.880Z,0.00
2019-01-11T08:25:21.363Z,0.00
2019-01-11T08:28:01.214Z,0.20
2019-01-11T08:40:02.692Z,0.30
2019-01-11T08:42:42.961Z,0.30
2019-01-11T08:45:22.809Z,0.30
2019-01-11T08:48:02.882Z,0.30
2019-01-11T08:50:42.684Z,0.40
2019-01-11T08:53:20.561Z,0.40
2019-01-11T08:56:08.405Z,0.60
2019-01-11T08:58:56.729Z,0.40
2019-01-11T09:01:43.531Z,0.40
2019-01-11T09:04:30.846Z,0.40
2019-01-11T09:10:51.157Z,0.50
2019-01-11T09:13:18.337Z,0.50
2019-01-11T09:19:07.882Z,0.60
2019-01-11T09:21:48.063Z,0.70
2019-01-11T09:24:28.021Z,0.60
2019-01-11T09:27:08.243Z,0.70
2019-01-11T09:29:48.633Z,0.70
2019-01-11T09:32:28.313Z,0.70
2019-01-11T09:35:08.415Z,0.30
2019-01-11T09:37:48.372Z,0.80
2019-01-11T09:40:28.870Z,0.60
2019-01-11T09:43:08.707Z,0.70
2019-01-11T09:49:08.365Z,0.70
2019-01-11T09:54:53.341Z,0.80
2019-01-11T09:57:33.770Z,0.70
2019-01-11T10:00:13.510Z,0.70
2019-01-11T10:02:56.317Z,0.70
2019-01-11T10:05:42.285Z,0.60
2019-01-11T10:08:21.862Z,0.50
2019-01-11T10:11:01.691Z,0.70
2019-01-11T10:13:41.922Z,0.80
2019-01-11T10:16:21.969Z,0.70
2019-01-11T10:19:02.203Z,0.70
2019-01-11T10:21:42.237Z,0.80
2019-01-11T10:24:22.305Z,0.70
2019-01-11T10:27:02.298Z,0.60
2019-01-11T10:29:42.217Z,0.60
2019-01-11T10:32:22.045Z,0.60
2019-01-11T10:35:02.191Z,0.60
2019-01-11T10:37:42.217Z,0.60
2019-01-11T10:40:22.174Z,0.80
2019-01-11T10:43:02.162Z,0.70
2019-01-11T10:45:41.962Z,0.70
2019-01-11T10:48:22.133Z,0.80
2019-01-11T10:51:02.413Z,0.80
2019-01-11T10:53:42.081Z,0.90
2019-01-11T10:56:22.060Z,0.90
2019-01-11T10:59:01.859Z,0.90
2019-01-11T11:01:42.050Z,1.00
2019-01-11T11:04:21.994Z,1.00
2019-01-11T11:07:02.212Z,0.90
2019-01-11T11:09:42.352Z,0.80
2019-01-11T11:12:23.190Z,0.70
2019-01-11T11:15:03.627Z,0.70
2019-01-11T11:17:44.226Z,0.70
2019-01-11T11:20:23.958Z,0.70
2019-01-11T11:23:03.939Z,0.70
2019-01-11T11:25:44.234Z,0.70
2019-01-11T11:28:24.565Z,0.70
2019-01-11T11:31:04.422Z,0.80
2019-01-11T11:33:44.520Z,0.70
2019-01-11T11:39:33.886Z,0.70
2019-01-11T11:42:16.887Z,0.40
2019-01-11T11:44:56.178Z,0.60
2019-01-11T11:47:36.074Z,0.70
2019-01-11T11:50:16.377Z,0.80
2019-01-11T11:52:56.713Z,0.70
2019-01-11T11:55:36.749Z,0.70
2019-01-11T11:58:16.397Z,0.70
2019-01-11T12:00:56.638Z,0.70
2019-01-11T12:03:36.571Z,0.70
2019-01-11T12:06:16.698Z,0.80
2019-01-11T12:08:56.982Z,0.80
2019-01-11T12:11:36.685Z,0.70
2019-01-11T12:14:17.104Z,0.80
2019-01-11T12:20:02.282Z,0.70
2019-01-11T12:22:42.754Z,0.70
2019-01-11T12:25:22.670Z,0.90
2019-01-11T12:28:02.706Z,0.60
2019-01-11T12:30:42.749Z,0.50
2019-01-11T12:33:22.665Z,0.60
2019-01-11T12:36:02.702Z,0.60
2019-01-11T12:42:02.006Z,0.60
2019-01-11T12:44:41.886Z,0.70
2019-01-11T12:47:22.025Z,0.80
2019-01-11T12:50:02.066Z,0.80
2019-01-11T12:52:42.344Z,0.80
2019-01-11T12:55:21.998Z,0.90
2019-01-11T12:58:02.125Z,0.70
2019-01-11T13:00:42.520Z,0.90
2019-01-11T13:03:22.293Z,0.80
2019-01-11T13:06:02.451Z,0.70
2019-01-11T13:08:42.838Z,0.80
2019-01-11T13:11:22.816Z,0.80
2019-01-11T13:14:02.404Z,0.80
2019-01-11T13:16:42.841Z,0.80
2019-01-11T13:19:22.770Z,0.80
2019-01-11T13:22:03.182Z,0.80
2019-01-11T13:24:42.703Z,0.90
2019-01-11T13:27:23.078Z,0.60
2019-01-11T13:30:03.519Z,0.90
2019-01-11T13:32:43.365Z,0.80
2019-01-11T13:35:23.232Z,0.80
2019-01-11T13:38:03.583Z,1.00
2019-01-11T13:40:43.627Z,0.80
2019-01-11T13:43:23.665Z,0.80
2019-01-11T13:46:03.278Z,0.90
2019-01-11T13:48:43.498Z,0.80
2019-01-11T13:51:23.353Z,0.90
2019-01-11T13:54:04.046Z,1.00
2019-01-11T13:56:44.129Z,1.00
2019-01-11T13:59:24.058Z,1.00
2019-01-11T14:02:04.594Z,1.10
2019-01-11T14:04:44.295Z,1.00
2019-01-11T14:07:24.766Z,0.90
2019-01-11T14:10:04.587Z,0.90
2019-01-11T14:12:44.928Z,1.00
2019-01-11T14:15:25.101Z,0.90
2019-01-11T14:18:06.703Z,0.90
2019-01-11T14:20:46.766Z,0.90
2019-01-11T14:23:27.030Z,0.90
2019-01-11T14:26:07.073Z,1.00
2019-01-11T14:28:46.927Z,1.10
2019-01-11T14:31:26.926Z,1.10
2019-01-11T14:34:07.330Z,1.10
2019-01-11T14:36:47.453Z,1.10
2019-01-11T14:39:27.617Z,1.00
2019-01-11T14:42:07.777Z,1.00
2019-01-11T14:44:47.858Z,0.90
2019-01-11T14:47:27.827Z,1.10
2019-01-11T14:50:08.031Z,0.90
2019-01-11T14:52:48.293Z,1.00
2019-01-11T14:55:28.417Z,0.90
2019-01-11T14:58:08.543Z,0.90
2019-01-11T15:00:48.585Z,1.00
2019-01-11T15:03:28.553Z,1.10
2019-01-11T15:06:08.781Z,1.00
2019-01-11T15:08:48.762Z,1.00
2019-01-11T15:11:28.938Z,1.00
2019-01-11T15:14:09.073Z,0.90
2019-01-11T15:16:48.694Z,0.70
2019-01-11T15:19:28.783Z,1.10
2019-01-11T15:22:08.999Z,1.20
2019-01-11T15:24:49.387Z,1.00
2019-01-11T15:27:29.602Z,1.10
2019-01-11T15:30:09.786Z,1.20
2019-01-11T15:32:49.946Z,1.20
2019-01-11T15:35:29.968Z,1.20
2019-01-11T15:38:09.854Z,1.20
2019-01-11T15:40:50.241Z,1.20
2019-01-11T15:43:30.410Z,1.20
2019-01-11T15:46:15.159Z,1.10
2019-01-11T15:48:54.774Z,1.10
2019-01-11T15:51:34.684Z,1.10
2019-01-11T15:54:14.818Z,1.10
2019-01-11T15:56:54.647Z,1.10
2019-01-11T15:59:35.621Z,1.10
2019-01-11T16:02:16.014Z,1.00
2019-01-11T16:04:56.017Z,0.90
2019-01-11T16:07:36.310Z,1.00
2019-01-11T16:10:16.367Z,1.00
2019-01-11T16:12:56.593Z,1.10
2019-01-11T16:15:36.872Z,1.10
2019-01-11T16:18:17.240Z,1.10
2019-01-11T16:20:57.483Z,1.00
2019-01-11T16:23:37.390Z,1.10
2019-01-11T16:26:17.423Z,0.90
2019-01-11T16:28:57.913Z,1.10
2019-01-11T16:31:37.991Z,1.10
2019-01-11T16:34:18.069Z,1.20
2019-01-11T16:36:58.128Z,1.20
2019-01-11T16:39:38.658Z,1.10
2019-01-11T16:42:19.772Z,1.10
2019-01-11T16:44:59.729Z,1.10
2019-01-11T16:47:39.914Z,1.10
2019-01-11T16:50:19.996Z,1.00
2019-01-11T16:53:00.326Z,1.10
2019-01-11T16:55:40.371Z,1.10
2019-01-11T16:58:20.382Z,1.20
2019-01-11T17:01:00.179Z,1.20
2019-01-11T17:03:40.512Z,1.00
2019-01-11T17:06:20.594Z,1.10
2019-01-11T17:09:00.531Z,1.10
2019-01-11T17:11:40.954Z,1.10
2019-01-11T17:14:20.774Z,1.20
2019-01-11T17:17:01.242Z,1.30
2019-01-11T17:19:41.199Z,1.40
2019-01-11T17:22:21.207Z,1.40
2019-01-11T17:25:01.629Z,1.40
2019-01-11T17:27:41.914Z,1.40
2019-01-11T17:30:21.694Z,1.40
2019-01-11T17:33:01.751Z,1.40
2019-01-11T17:35:42.495Z,1.30
2019-01-11T17:38:22.773Z,1.40
2019-01-11T17:41:03.346Z,1.40
2019-01-11T17:43:43.305Z,1.40
2019-01-11T17:46:23.841Z,1.30
2019-01-11T17:49:03.631Z,1.10
2019-01-11T17:51:43.411Z,1.50
2019-01-11T17:54:23.938Z,1.40
2019-01-11T17:57:03.648Z,1.40
2019-01-11T17:59:43.587Z,1.50
2019-01-11T18:02:24.384Z,1.40
2019-01-11T18:05:04.077Z,1.40
2019-01-11T18:07:44.214Z,1.30
2019-01-11T18:10:24.490Z,1.30
2019-01-11T18:13:04.769Z,1.30
2019-01-11T18:15:44.929Z,1.30
2019-01-11T18:18:25.229Z,1.30
2019-01-11T18:21:05.399Z,1.00
2019-01-11T18:23:45.563Z,1.30
2019-01-11T18:26:25.658Z,1.20
2019-01-11T18:29:05.390Z,1.30
2019-01-11T18:31:44.895Z,1.30
2019-01-11T18:34:24.637Z,1.30
2019-01-11T18:37:05.025Z,1.30
2019-01-11T18:39:45.216Z,1.40
2019-01-11T18:42:25.433Z,1.40
2019-01-11T18:44:53.346Z,1.60
2019-01-11T18:47:40.799Z,1.50
2019-01-11T18:50:28.093Z,1.60
2019-01-11T18:53:15.470Z,1.60
2019-01-11T18:56:05.498Z,1.50
2019-01-11T18:58:51.727Z,1.50
2019-01-11T19:01:19.193Z,1.30
2019-01-11T19:04:06.190Z,1.50
2019-01-11T19:06:52.992Z,1.60
2019-01-11T19:09:40.328Z,1.60
2019-01-11T19:12:27.142Z,1.60
2019-01-11T19:15:33.742Z,1.50
2019-01-11T19:18:14.266Z,1.60
2019-01-11T19:20:54.567Z,1.60
2019-01-11T19:23:34.579Z,1.50
2019-01-11T19:26:14.932Z,1.40
2019-01-11T19:28:54.886Z,1.60
2019-01-11T19:31:34.749Z,1.60
2019-01-11T19:34:15.158Z,1.70
2019-01-11T19:36:55.617Z,1.40
2019-01-11T19:39:23.170Z,1.60
2019-01-11T19:42:10.476Z,1.50
2019-01-11T19:44:57.780Z,1.60
2019-01-11T19:47:45.093Z,1.70
2019-01-11T19:50:31.765Z,1.60
2019-01-11T19:53:18.689Z,1.60
2019-01-11T19:56:05.929Z,1.30
2019-01-11T19:58:53.243Z,1.60
2019-01-11T20:01:40.344Z,1.70
2019-01-11T20:04:27.313Z,1.50
2019-01-11T20:07:14.203Z,1.50
2019-01-11T20:10:01.343Z,1.60
2019-01-11T20:12:28.762Z,1.60
2019-01-11T20:15:16.115Z,1.60
2019-01-11T20:17:56.756Z,1.50
2019-01-11T20:20:36.595Z,1.50
2019-01-11T20:23:17.023Z,1.60
2019-01-11T20:25:57.170Z,1.60
2019-01-11T20:28:37.084Z,1.50
2019-01-11T20:31:17.488Z,1.40
2019-01-11T20:33:57.942Z,1.50
2019-01-11T20:36:38.267Z,1.60
2019-01-11T20:39:18.427Z,1.60
2019-01-11T20:41:59.023Z,1.60
2019-01-11T20:44:38.982Z,1.60
2019-01-11T20:47:19.158Z,1.70
2019-01-11T20:49:59.468Z,1.60
2019-01-11T20:52:39.683Z,1.60
2019-01-11T20:55:19.690Z,1.90
2019-01-11T20:57:59.650Z,1.70
2019-01-11T21:00:40.160Z,1.70
2019-01-11T21:03:19.899Z,1.60
2019-01-11T21:06:00.116Z,1.80
2019-01-11T21:08:40.035Z,1.70
2019-01-11T21:11:20.272Z,1.80
2019-01-11T21:14:00.515Z,1.90
2019-01-11T21:16:40.806Z,1.90
2019-01-11T21:19:20.436Z,1.90
2019-01-11T21:22:01.086Z,1.70
2019-01-11T21:24:41.155Z,1.80
2019-01-11T21:27:21.431Z,1.80
2019-01-11T21:30:01.670Z,1.80
2019-01-11T21:32:41.521Z,1.80
2019-01-11T21:35:21.572Z,1.50
2019-01-11T21:38:01.749Z,1.90
2019-01-11T21:40:41.591Z,1.90
2019-01-11T21:43:21.318Z,2.00
2019-01-11T21:46:03.565Z,1.90
2019-01-11T21:48:43.732Z,1.90
2019-01-11T21:51:23.675Z,1.90
2019-01-11T21:54:04.159Z,2.00
2019-01-11T21:56:43.954Z,1.90
2019-01-11T21:59:24.615Z,1.90
2019-01-11T22:02:04.687Z,1.90
2019-01-11T22:04:44.518Z,2.00
2019-01-11T22:07:25.030Z,1.80
2019-01-11T22:10:04.915Z,2.00
2019-01-11T22:12:44.693Z,2.00
2019-01-11T22:15:24.848Z,2.00
2019-01-11T22:18:05.397Z,2.00
2019-01-11T22:20:44.769Z,1.90
2019-01-11T22:23:25.055Z,2.00
2019-01-11T22:26:05.242Z,2.00
2019-01-11T22:28:45.435Z,1.90
2019-01-11T22:31:25.467Z,2.00
2019-01-11T22:34:05.368Z,1.90
2019-01-11T22:36:44.758Z,1.80
2019-01-11T22:39:25.211Z,1.90
2019-01-11T22:42:05.854Z,1.90
2019-01-11T22:44:45.919Z,2.00
2019-01-11T22:47:25.640Z,2.00
2019-01-11T22:50:05.996Z,2.00
2019-01-11T22:52:46.332Z,2.00
2019-01-11T22:55:26.612Z,2.00
2019-01-11T22:58:06.463Z,2.00
2019-01-11T23:00:48.110Z,2.00
2019-01-11T23:03:28.115Z,2.20
2019-01-11T23:06:09.151Z,2.20
2019-01-11T23:08:48.914Z,2.10
2019-01-11T23:11:29.530Z,2.10
2019-01-11T23:14:09.629Z,2.10
2019-01-11T23:16:50.523Z,2.00
2019-01-11T23:19:30.762Z,2.10
2019-01-11T23:22:10.678Z,2.20
2019-01-11T23:24:50.273Z,2.10
2019-01-11T23:27:30.417Z,2.00
2019-01-11T23:30:10.379Z,2.10
2019-01-11T23:32:50.562Z,2.10
2019-01-11T23:35:30.613Z,2.10
2019-01-11T23:38:11.143Z,2.10
2019-01-11T23:40:51.321Z,2.10
2019-01-11T23:43:31.362Z,2.20
2019-01-11T23:46:11.731Z,2.00
2019-01-11T23:48:52.058Z,2.20
2019-01-11T23:51:31.751Z,2.10
2019-01-11T23:54:11.993Z,2.20
2019-01-11T23:56:52.274Z,2.20
2019-01-11T23:59:32.207Z,2.20
